sensor_id;sensor_type;location;lat;lon;timestamp;pressure;altitude;pressure_sealevel;temperature;humidity
11339;BME280;5724;42.684;23.252;2022-12-18T00:00:31;95098.84;;;3.91;100.00
11339;BME280;5724;42.684;23.252;2022-12-18T00:02:56;95100.31;;;3.69;100.00
11339;BME280;5724;42.684;23.252;2022-12-18T00:05:21;95110.03;;;3.70;100.00
11339;BME280;5724;42.684;23.252;2022-12-18T00:07:47;95112.22;;;3.68;100.00
11339;BME280;5724;42.684;23.252;2022-12-18T00:10:12;95117.53;;;3.73;100.00
11339;BME280;5724;42.684;23.252;2022-12-18T00:12:38;95116.66;;;3.78;100.00
11339;BME280;5724;42.684;23.252;2022-12-18T00:15:03;95115.94;;;3.72;100.00
11339;BME280;5724;42.684;23.252;2022-12-18T00:17:29;95104.91;;;3.69;100.00
11339;BME280;5724;42.684;23.252;2022-12-18T00:19:54;95127.84;;;3.71;100.00
11339;BME280;5724;42.684;23.252;2022-12-18T00:22:20;95121.53;;;3.76;100.00
11339;BME280;5724;42.684;23.252;2022-12-18T00:24:45;95121.53;;;3.76;100.00
11339;BME280;5724;42.684;23.252;2022-12-18T00:27:11;95125.34;;;3.75;100.00
11339;BME280;5724;42.684;23.252;2022-12-18T00:29:36;95129.53;;;3.67;100.00
11339;BME280;5724;42.684;23.252;2022-12-18T00:32:01;95136.31;;;3.65;100.00
11339;BME280;5724;42.684;23.252;2022-12-18T00:34:27;95136.91;;;3.62;100.00
11339;BME280;5724;42.684;23.252;2022-12-18T00:36:52;95137.34;;;3.69;100.00
11339;BME280;5724;42.684;23.252;2022-12-18T00:39:18;95142.25;;;3.67;100.00
11339;BME280;5724;42.684;23.252;2022-12-18T00:41:43;95137.34;;;3.69;100.00
11339;BME280;5724;42.684;23.252;2022-12-18T00:44:28;95144.03;;;3.58;100.00
11339;BME280;5724;42.684;23.252;2022-12-18T00:46:53;95136.47;;;3.55;100.00
11339;BME280;5724;42.684;23.252;2022-12-18T00:49:19;95144.38;;;3.51;100.00
11339;BME280;5724;42.684;23.252;2022-12-18T00:51:45;95153.34;;;3.47;100.00
11339;BME280;5724;42.684;23.252;2022-12-18T00:54:10;95149.22;;;3.35;100.00
11339;BME280;5724;42.684;23.252;2022-12-18T00:56:37;95149.44;;;3.39;100.00
11339;BME280;5724;42.684;23.252;2022-12-18T00:59:03;95147.59;;;3.34;100.00
11339;BME280;5724;42.684;23.252;2022-12-18T01:01:29;95147.09;;;3.32;100.00
11339;BME280;5724;42.684;23.252;2022-12-18T01:03:58;95167.63;;;3.33;100.00
11339;BME280;5724;42.684;23.252;2022-12-18T01:06:24;95157.91;;;3.32;100.00
11339;BME280;5724;42.684;23.252;2022-12-18T01:08:49;95164.16;;;3.28;100.00
11339;BME280;5724;42.684;23.252;2022-12-18T01:11:17;95165.56;;;3.25;100.00
11339;BME280;5724;42.684;23.252;2022-12-18T01:13:43;95172.38;;;3.23;100.00
11339;BME280;5724;42.684;23.252;2022-12-18T01:16:12;95177.59;;;3.14;100.00
11339;BME280;5724;42.684;23.252;2022-12-18T01:18:38;95175.09;;;2.99;100.00
11339;BME280;5724;42.684;23.252;2022-12-18T01:21:08;95184.53;;;3.01;100.00
11339;BME280;5724;42.684;23.252;2022-12-18T01:23:34;95172.19;;;2.95;100.00
11339;BME280;5724;42.684;23.252;2022-12-18T01:26:11;95175.53;;;2.87;100.00
11339;BME280;5724;42.684;23.252;2022-12-18T01:28:38;95182.31;;;2.84;100.00
11339;BME280;5724;42.684;23.252;2022-12-18T01:31:16;95034.25;;;1.97;100.00
11339;BME280;5724;42.684;23.252;2022-12-18T01:33:42;95173.22;;;2.80;100.00
11339;BME280;5724;42.684;23.252;2022-12-18T01:36:14;95181.66;;;2.74;100.00
11339;BME280;5724;42.684;23.252;2022-12-18T01:38:40;95194.25;;;2.78;100.00
11339;BME280;5724;42.684;23.252;2022-12-18T01:41:06;95182.38;;;2.79;100.00
11339;BME280;5724;42.684;23.252;2022-12-18T01:43:56;95204.50;;;2.81;100.00
11339;BME280;5724;42.684;23.252;2022-12-18T01:46:24;95191.50;;;2.83;100.00
11339;BME280;5724;42.684;23.252;2022-12-18T01:48:57;95213.41;;;2.82;100.00
11339;BME280;5724;42.684;23.252;2022-12-18T01:51:25;95195.06;;;2.79;100.00
11339;BME280;5724;42.684;23.252;2022-12-18T01:53:51;95205.06;;;2.78;100.00
11339;BME280;5724;42.684;23.252;2022-12-18T01:56:18;95208.28;;;2.80;100.00
11339;BME280;5724;42.684;23.252;2022-12-18T01:58:55;95205.06;;;2.78;100.00
11339;BME280;5724;42.684;23.252;2022-12-18T02:01:23;95197.94;;;2.87;100.00
11339;BME280;5724;42.684;23.252;2022-12-18T02:03:50;95209.97;;;2.95;100.00
11339;BME280;5724;42.684;23.252;2022-12-18T02:06:31;95189.53;;;2.89;100.00
11339;BME280;5724;42.684;23.252;2022-12-18T02:09:11;95199.28;;;2.90;100.00
11339;BME280;5724;42.684;23.252;2022-12-18T02:11:57;95198.72;;;2.88;100.00
11339;BME280;5724;42.684;23.252;2022-12-18T02:15:16;95206.78;;;2.93;100.00
11339;BME280;5724;42.684;23.252;2022-12-18T02:17:30;95210.31;;;2.88;100.00
11339;BME280;5724;42.684;23.252;2022-12-18T02:25:40;95221.31;;;2.73;100.00
11339;BME280;5724;42.684;23.252;2022-12-18T02:28:13;95230.22;;;2.74;100.00
11339;BME280;5724;42.684;23.252;2022-12-18T02:30:42;95220.81;;;2.71;100.00
11339;BME280;5724;42.684;23.252;2022-12-18T02:33:09;95222.97;;;2.69;100.00
11339;BME280;5724;42.684;23.252;2022-12-18T02:35:36;95228.91;;;2.71;100.00
11339;BME280;5724;42.684;23.252;2022-12-18T02:38:04;95226.53;;;2.65;100.00
11339;BME280;5724;42.684;23.252;2022-12-18T02:40:30;95239.44;;;2.68;100.00
11339;BME280;5724;42.684;23.252;2022-12-18T02:43:12;95231.94;;;2.65;100.00
11339;BME280;5724;42.684;23.252;2022-12-18T02:45:55;95241.84;;;2.69;100.00
11339;BME280;5724;42.684;23.252;2022-12-18T02:48:24;95233.22;;;2.72;100.00
11339;BME280;5724;42.684;23.252;2022-12-18T02:51:18;95254.03;;;2.67;100.00
11339;BME280;5724;42.684;23.252;2022-12-18T02:53:56;95236.78;;;2.39;100.00
11339;BME280;5724;42.684;23.252;2022-12-18T02:56:38;95238.06;;;2.46;100.00
11339;BME280;5724;42.684;23.252;2022-12-18T02:59:13;95235.25;;;2.33;100.00
11339;BME280;5724;42.684;23.252;2022-12-18T03:01:50;95243.38;;;2.27;100.00
11339;BME280;5724;42.684;23.252;2022-12-18T03:07:11;95239.78;;;2.08;100.00
11339;BME280;5724;42.684;23.252;2022-12-18T03:09:44;95261.44;;;1.98;100.00
11339;BME280;5724;42.684;23.252;2022-12-18T03:12:21;95252.56;;;1.92;100.00
11339;BME280;5724;42.684;23.252;2022-12-18T03:17:23;95253.63;;;1.96;100.00
11339;BME280;5724;42.684;23.252;2022-12-18T03:19:52;95250.66;;;1.98;100.00
11339;BME280;5724;42.684;23.252;2022-12-18T03:22:20;95252.31;;;1.94;100.00
11339;BME280;5724;42.684;23.252;2022-12-18T03:24:47;95257.88;;;2.03;100.00
11339;BME280;5724;42.684;23.252;2022-12-18T03:27:17;95271.53;;;2.11;100.00
11339;BME280;5724;42.684;23.252;2022-12-18T03:29:49;95264.00;;;2.13;100.00
11339;BME280;5724;42.684;23.252;2022-12-18T03:32:26;95263.84;;;2.28;100.00
11339;BME280;5724;42.684;23.252;2022-12-18T03:34:57;95273.81;;;2.57;100.00
11339;BME280;5724;42.684;23.252;2022-12-18T03:37:24;95270.72;;;2.69;100.00
11339;BME280;5724;42.684;23.252;2022-12-18T03:39:49;95290.72;;;2.68;100.00
11339;BME280;5724;42.684;23.252;2022-12-18T03:45:21;95282.13;;;2.37;100.00
11339;BME280;5724;42.684;23.252;2022-12-18T03:48:18;95285.28;;;2.15;100.00
11339;BME280;5724;42.684;23.252;2022-12-18T03:54:09;95291.38;;;1.91;100.00
11339;BME280;5724;42.684;23.252;2022-12-18T03:56:12;95296.97;;;2.00;100.00
11339;BME280;5724;42.684;23.252;2022-12-18T03:58:40;95267.53;;;1.75;100.00
11339;BME280;5724;42.684;23.252;2022-12-18T04:01:07;95300.25;;;1.97;100.00
11339;BME280;5724;42.684;23.252;2022-12-18T04:03:34;95288.38;;;1.98;100.00
11339;BME280;5724;42.684;23.252;2022-12-18T04:06:01;95310.59;;;1.80;100.00
11339;BME280;5724;42.684;23.252;2022-12-18T04:08:28;95302.50;;;1.85;100.00
11339;BME280;5724;42.684;23.252;2022-12-18T04:10:54;95306.28;;;1.84;100.00
11339;BME280;5724;42.684;23.252;2022-12-18T04:13:38;95310.34;;;2.15;100.00
11339;BME280;5724;42.684;23.252;2022-12-18T04:16:04;95323.66;;;2.36;100.00
11339;BME280;5724;42.684;23.252;2022-12-18T04:18:30;95331.97;;;2.39;100.00
11339;BME280;5724;42.684;23.252;2022-12-18T04:20:56;95326.16;;;2.27;100.00
11339;BME280;5724;42.684;23.252;2022-12-18T04:23:21;95338.91;;;2.16;100.00
11339;BME280;5724;42.684;23.252;2022-12-18T04:25:47;95336.31;;;2.01;100.00
11339;BME280;5724;42.684;23.252;2022-12-18T04:28:13;95335.41;;;1.77;100.00
11339;BME280;5724;42.684;23.252;2022-12-18T04:30:38;95326.88;;;1.59;100.00
11339;BME280;5724;42.684;23.252;2022-12-18T04:33:08;95362.94;;;1.63;100.00
11339;BME280;5724;42.684;23.252;2022-12-18T04:35:34;95344.13;;;1.58;100.00
11339;BME280;5724;42.684;23.252;2022-12-18T04:38:00;95359.22;;;1.54;100.00
11339;BME280;5724;42.684;23.252;2022-12-18T04:40:25;95351.13;;;1.54;100.00
11339;BME280;5724;42.684;23.252;2022-12-18T04:42:51;95358.97;;;1.51;100.00
11339;BME280;5724;42.684;23.252;2022-12-18T04:45:16;95361.97;;;1.44;100.00
11339;BME280;5724;42.684;23.252;2022-12-18T04:47:42;95368.94;;;1.55;100.00
11339;BME280;5724;42.684;23.252;2022-12-18T04:50:08;95379.16;;;1.53;100.00
11339;BME280;5724;42.684;23.252;2022-12-18T04:52:33;95375.66;;;1.58;100.00
11339;BME280;5724;42.684;23.252;2022-12-18T04:54:59;95374.28;;;1.60;100.00
11339;BME280;5724;42.684;23.252;2022-12-18T04:57:24;95379.16;;;1.53;100.00
11339;BME280;5724;42.684;23.252;2022-12-18T04:59:49;95398.56;;;1.50;100.00
11339;BME280;5724;42.684;23.252;2022-12-18T05:02:15;95388.59;;;1.56;100.00
11339;BME280;5724;42.684;23.252;2022-12-18T05:04:40;95398.47;;;1.76;100.00
11339;BME280;5724;42.684;23.252;2022-12-18T05:07:06;95380.03;;;1.93;100.00
11339;BME280;5724;42.684;23.252;2022-12-18T05:09:31;95402.66;;;1.92;100.00
11339;BME280;5724;42.684;23.252;2022-12-18T05:11:56;95393.13;;;1.60;100.00
11339;BME280;5724;42.684;23.252;2022-12-18T05:14:22;95412.09;;;1.25;100.00
11339;BME280;5724;42.684;23.252;2022-12-18T05:16:48;95406.75;;;1.20;100.00
11339;BME280;5724;42.684;23.252;2022-12-18T05:19:13;95412.69;;;1.17;100.00
11339;BME280;5724;42.684;23.252;2022-12-18T05:21:39;95407.28;;;1.27;100.00
11339;BME280;5724;42.684;23.252;2022-12-18T05:24:04;95428.25;;;1.25;100.00
11339;BME280;5724;42.684;23.252;2022-12-18T05:26:30;95409.41;;;1.25;100.00
11339;BME280;5724;42.684;23.252;2022-12-18T05:28:55;95429.06;;;1.35;100.00
11339;BME280;5724;42.684;23.252;2022-12-18T05:31:21;95426.91;;;1.37;100.00
11339;BME280;5724;42.684;23.252;2022-12-18T05:33:46;95424.94;;;1.53;100.00
11339;BME280;5724;42.684;23.252;2022-12-18T05:36:12;95435.34;;;1.80;100.00
11339;BME280;5724;42.684;23.252;2022-12-18T05:38:38;95445.84;;;1.82;100.00
11339;BME280;5724;42.684;23.252;2022-12-18T05:41:05;95457.94;;;1.89;100.00
11339;BME280;5724;42.684;23.252;2022-12-18T05:43:31;95444.44;;;1.94;100.00
11339;BME280;5724;42.684;23.252;2022-12-18T05:45:56;95467.47;;;1.61;100.00
11339;BME280;5724;42.684;23.252;2022-12-18T05:48:22;95445.78;;;1.27;100.00
11339;BME280;5724;42.684;23.252;2022-12-18T05:50:49;95413.25;;;0.93;100.00
11339;BME280;5724;42.684;23.252;2022-12-18T05:53:17;95459.25;;;1.02;100.00
11339;BME280;5724;42.684;23.252;2022-12-18T05:55:43;95458.22;;;0.98;100.00
11339;BME280;5724;42.684;23.252;2022-12-18T05:58:10;95453.91;;;0.97;100.00
11339;BME280;5724;42.684;23.252;2022-12-18T06:00:38;95447.97;;;0.90;100.00
11339;BME280;5724;42.684;23.252;2022-12-18T06:03:05;95443.38;;;0.95;100.00
11339;BME280;5724;42.684;23.252;2022-12-18T06:05:38;95450.91;;;1.08;100.00
11339;BME280;5724;42.684;23.252;2022-12-18T06:08:04;95477.00;;;1.13;100.00
11339;BME280;5724;42.684;23.252;2022-12-18T06:10:29;95467.03;;;1.24;100.00
11339;BME280;5724;42.684;23.252;2022-12-18T06:12:55;95470.81;;;1.23;100.00
11339;BME280;5724;42.684;23.252;2022-12-18T06:15:20;95483.44;;;1.32;100.00
11339;BME280;5724;42.684;23.252;2022-12-18T06:17:45;95478.56;;;1.55;100.00
11339;BME280;5724;42.684;23.252;2022-12-18T06:20:11;95484.13;;;1.79;100.00
11339;BME280;5724;42.684;23.252;2022-12-18T06:22:36;95485.69;;;1.90;100.00
11339;BME280;5724;42.684;23.252;2022-12-18T06:25:02;95483.56;;;1.87;100.00
11339;BME280;5724;42.684;23.252;2022-12-18T06:30:13;95497.69;;;1.43;100.00
11339;BME280;5724;42.684;23.252;2022-12-18T06:32:38;95489.13;;;1.26;100.00
11339;BME280;5724;42.684;23.252;2022-12-18T06:35:04;95488.88;;;1.17;100.00
11339;BME280;5724;42.684;23.252;2022-12-18T06:37:30;95493.16;;;1.13;100.00
11339;BME280;5724;42.684;23.252;2022-12-18T06:39:56;95502.03;;;1.13;100.00
11339;BME280;5724;42.684;23.252;2022-12-18T06:42:22;95500.16;;;1.14;100.00
11339;BME280;5724;42.684;23.252;2022-12-18T06:44:48;95496.66;;;1.19;100.00
11339;BME280;5724;42.684;23.252;2022-12-18T06:47:13;95504.44;;;1.35;100.00
11339;BME280;5724;42.684;23.252;2022-12-18T06:49:39;95512.50;;;1.56;100.00
11339;BME280;5724;42.684;23.252;2022-12-18T06:52:04;95508.91;;;1.81;100.00
11339;BME280;5724;42.684;23.252;2022-12-18T06:54:30;95522.59;;;1.89;100.00
11339;BME280;5724;42.684;23.252;2022-12-18T06:56:55;95522.94;;;1.62;100.00
11339;BME280;5724;42.684;23.252;2022-12-18T06:59:21;95527.88;;;1.45;100.00
11339;BME280;5724;42.684;23.252;2022-12-18T07:01:46;95531.34;;;1.25;100.00
11339;BME280;5724;42.684;23.252;2022-12-18T07:04:12;95533.81;;;1.11;100.00
11339;BME280;5724;42.684;23.252;2022-12-18T07:06:37;95529.22;;;1.22;100.00
11339;BME280;5724;42.684;23.252;2022-12-18T07:09:03;95523.84;;;1.12;100.00
11339;BME280;5724;42.684;23.252;2022-12-18T07:11:28;95539.72;;;1.29;100.00
11339;BME280;5724;42.684;23.252;2022-12-18T07:13:53;95534.06;;;1.30;100.00
11339;BME280;5724;42.684;23.252;2022-12-18T07:16:20;95523.53;;;1.49;100.00
11339;BME280;5724;42.684;23.252;2022-12-18T07:18:46;95536.69;;;1.76;100.00
11339;BME280;5724;42.684;23.252;2022-12-18T07:21:17;95523.94;;;1.92;100.00
11339;BME280;5724;42.684;23.252;2022-12-18T07:23:42;95535.81;;;1.96;100.00
11339;BME280;5724;42.684;23.252;2022-12-18T07:26:11;95539.59;;;1.95;100.00
11339;BME280;5724;42.684;23.252;2022-12-18T07:28:38;95542.63;;;1.68;100.00
11339;BME280;5724;42.684;23.252;2022-12-18T07:31:11;95545.63;;;1.46;100.00
11339;BME280;5724;42.684;23.252;2022-12-18T07:33:37;95548.84;;;1.33;100.00
11339;BME280;5724;42.684;23.252;2022-12-18T07:36:04;95548.06;;;1.22;100.00
11339;BME280;5724;42.684;23.252;2022-12-18T07:38:31;95531.13;;;1.06;100.00
11339;BME280;5724;42.684;23.252;2022-12-18T07:41:07;95560.16;;;1.14;100.00
11339;BME280;5724;42.684;23.252;2022-12-18T07:43:33;95566.13;;;1.06;100.00
11339;BME280;5724;42.684;23.252;2022-12-18T07:45:59;95563.13;;;1.03;100.00
11339;BME280;5724;42.684;23.252;2022-12-18T07:51:09;95552.63;;;0.91;100.00
11339;BME280;5724;42.684;23.252;2022-12-18T07:53:35;95562.06;;;0.89;100.00
11339;BME280;5724;42.684;23.252;2022-12-18T07:56:06;95566.91;;;0.92;100.00
11339;BME280;5724;42.684;23.252;2022-12-18T07:58:33;95581.97;;;0.93;100.00
11339;BME280;5724;42.684;23.252;2022-12-18T08:01:09;95581.16;;;0.82;100.00
11339;BME280;5724;42.684;23.252;2022-12-18T08:03:36;95601.03;;;0.76;100.00
11339;BME280;5724;42.684;23.252;2022-12-18T08:06:03;95588.97;;;0.78;100.00
11339;BME280;5724;42.684;23.252;2022-12-18T08:08:30;95591.88;;;0.72;100.00
11339;BME280;5724;42.684;23.252;2022-12-18T08:10:56;95588.66;;;0.75;100.00
11339;BME280;5724;42.684;23.252;2022-12-18T08:13:23;95591.09;;;0.81;100.00
11339;BME280;5724;42.684;23.252;2022-12-18T08:16:00;95586.50;;;0.72;100.00
11339;BME280;5724;42.684;23.252;2022-12-18T08:18:26;95594.03;;;0.75;100.00
11339;BME280;5724;42.684;23.252;2022-12-18T08:20:51;95595.66;;;0.76;100.00
11339;BME280;5724;42.684;23.252;2022-12-18T08:23:17;95605.91;;;0.79;100.00
11339;BME280;5724;42.684;23.252;2022-12-18T08:25:42;95607.22;;;0.86;100.00
11339;BME280;5724;42.684;23.252;2022-12-18T08:28:09;95611.81;;;0.81;100.00
11339;BME280;5724;42.684;23.252;2022-12-18T08:30:35;95615.03;;;0.83;100.00
11339;BME280;5724;42.684;23.252;2022-12-18T08:33:01;95617.75;;;0.93;100.00
11339;BME280;5724;42.684;23.252;2022-12-18T08:35:26;95617.19;;;0.86;100.00
11339;BME280;5724;42.684;23.252;2022-12-18T08:37:52;95631.19;;;0.83;100.00
11339;BME280;5724;42.684;23.252;2022-12-18T08:40:17;95620.44;;;0.93;100.00
11339;BME280;5724;42.684;23.252;2022-12-18T08:42:43;95619.38;;;1.14;100.00
11339;BME280;5724;42.684;23.252;2022-12-18T08:45:27;95627.75;;;1.38;100.00
11339;BME280;5724;42.684;23.252;2022-12-18T08:47:53;95626.69;;;1.39;100.00
11339;BME280;5724;42.684;23.252;2022-12-18T08:50:19;95637.19;;;1.46;100.00
11339;BME280;5724;42.684;23.252;2022-12-18T08:52:45;95624.00;;;1.29;100.00
11339;BME280;5724;42.684;23.252;2022-12-18T08:55:10;95616.97;;;1.13;100.00
11339;BME280;5724;42.684;23.252;2022-12-18T08:57:36;95629.63;;;1.07;100.00
11339;BME280;5724;42.684;23.252;2022-12-18T09:00:02;95632.28;;;0.87;100.00
11339;BME280;5724;42.684;23.252;2022-12-18T09:02:28;95630.66;;;0.81;100.00
11339;BME280;5724;42.684;23.252;2022-12-18T09:04:53;95625.81;;;0.83;100.00
11339;BME280;5724;42.684;23.252;2022-12-18T09:07:19;95625.81;;;0.83;100.00
11339;BME280;5724;42.684;23.252;2022-12-18T09:09:44;95626.63;;;0.89;100.00
11339;BME280;5724;42.684;23.252;2022-12-18T09:12:10;95626.94;;;1.23;100.00
11339;BME280;5724;42.684;23.252;2022-12-18T09:14:35;95625.31;;;1.52;100.00
11339;BME280;5724;42.684;23.252;2022-12-18T09:17:01;95623.16;;;1.75;100.00
11339;BME280;5724;42.684;23.252;2022-12-18T09:19:27;95622.31;;;1.89;100.00
11339;BME280;5724;42.684;23.252;2022-12-18T09:21:52;95617.75;;;1.95;100.00
11339;BME280;5724;42.684;23.252;2022-12-18T09:24:17;95626.09;;;2.04;100.00
11339;BME280;5724;42.684;23.252;2022-12-18T09:26:43;95621.19;;;2.11;100.00
11339;BME280;5724;42.684;23.252;2022-12-18T09:29:09;95622.81;;;2.12;100.00
11339;BME280;5724;42.684;23.252;2022-12-18T09:31:35;95622.03;;;2.06;100.00
11339;BME280;5724;42.684;23.252;2022-12-18T09:34:01;95613.97;;;1.91;100.00
11339;BME280;5724;42.684;23.252;2022-12-18T09:36:26;95623.63;;;2.02;100.00
11339;BME280;5724;42.684;23.252;2022-12-18T09:38:52;95623.69;;;1.77;100.00
11339;BME280;5724;42.684;23.252;2022-12-18T09:41:51;95629.13;;;1.56;100.00
11339;BME280;5724;42.684;23.252;2022-12-18T09:44:41;95623.16;;;1.34;100.00
11339;BME280;5724;42.684;23.252;2022-12-18T09:47:16;95632.59;;;1.26;100.00
11339;BME280;5724;42.684;23.252;2022-12-18T09:49:45;95617.25;;;1.17;100.00
11339;BME280;5724;42.684;23.252;2022-12-18T09:52:16;95621.03;;;1.21;100.00
11339;BME280;5724;42.684;23.252;2022-12-18T09:54:44;95631.25;;;1.24;100.00
11339;BME280;5724;42.684;23.252;2022-12-18T09:57:17;95628.28;;;1.20;100.00
11339;BME280;5724;42.684;23.252;2022-12-18T09:59:47;95622.66;;;1.17;100.00
11339;BME280;5724;42.684;23.252;2022-12-18T10:02:22;95622.66;;;1.17;100.00
11339;BME280;5724;42.684;23.252;2022-12-18T10:05:12;95631.50;;;1.22;100.00
11339;BME280;5724;42.684;23.252;2022-12-18T10:08:10;95610.50;;;1.24;100.00
11339;BME280;5724;42.684;23.252;2022-12-18T10:10:51;95620.47;;;1.24;100.00
11339;BME280;5724;42.684;23.252;2022-12-18T10:13:42;95620.75;;;1.22;100.00
11339;BME280;5724;42.684;23.252;2022-12-18T10:19:38;95626.94;;;1.23;100.00
11339;BME280;5724;42.684;23.252;2022-12-18T10:22:11;95630.16;;;1.25;100.00
11339;BME280;5724;42.684;23.252;2022-12-18T10:24:53;95626.41;;;1.26;100.00
11339;BME280;5724;42.684;23.252;2022-12-18T10:27:25;95640.13;;;1.34;100.00
11339;BME280;5724;42.684;23.252;2022-12-18T10:29:52;95628.03;;;1.37;100.00
11339;BME280;5724;42.684;23.252;2022-12-18T10:32:26;95616.97;;;1.23;100.00
11339;BME280;5724;42.684;23.252;2022-12-18T10:34:54;95608.91;;;1.23;100.00
11339;BME280;5724;42.684;23.252;2022-12-18T10:37:23;95628.03;;;1.42;100.00
11339;BME280;5724;42.684;23.252;2022-12-18T10:40:13;95635.00;;;1.73;100.00
11339;BME280;5724;42.684;23.252;2022-12-18T10:42:39;95639.00;;;2.01;100.00
11339;BME280;5724;42.684;23.252;2022-12-18T10:45:15;95638.13;;;2.21;100.00
11339;BME280;5724;42.684;23.252;2022-12-18T10:47:49;95644.63;;;2.25;100.00
11339;BME280;5724;42.684;23.252;2022-12-18T10:50:23;95633.28;;;2.28;100.00
11339;BME280;5724;42.684;23.252;2022-12-18T10:52:55;95647.84;;;2.27;100.00
11339;BME280;5724;42.684;23.252;2022-12-18T10:55:21;95644.88;;;2.29;100.00
11339;BME280;5724;42.684;23.252;2022-12-18T10:57:46;95634.84;;;2.40;100.00
11339;BME280;5724;42.684;23.252;2022-12-18T11:00:28;95632.72;;;2.32;100.00
11339;BME280;5724;42.684;23.252;2022-12-18T11:02:56;95633.28;;;2.28;100.00
11339;BME280;5724;42.684;23.252;2022-12-18T11:07:50;95628.19;;;2.17;100.00
11339;BME280;5724;42.684;23.252;2022-12-18T11:10:18;95621.50;;;2.04;100.00
11339;BME280;5724;42.684;23.252;2022-12-18T11:12:44;95637.19;;;1.66;100.00
11339;BME280;5724;42.684;23.252;2022-12-18T11:15:36;95623.97;;;1.44;100.00
11339;BME280;5724;42.684;23.252;2022-12-18T11:18:01;95627.22;;;1.52;100.00
11339;BME280;5724;42.684;23.252;2022-12-18T11:20:34;95636.63;;;1.69;100.00
11339;BME280;5724;42.684;23.252;2022-12-18T11:23:03;95637.44;;;1.50;100.00
11339;BME280;5724;42.684;23.252;2022-12-18T11:25:29;95640.16;;;1.55;100.00
11339;BME280;5724;42.684;23.252;2022-12-18T11:28:03;95645.78;;;1.94;100.00
11339;BME280;5724;42.684;23.252;2022-12-18T11:30:32;95641.13;;;2.20;100.00
11339;BME280;5724;42.684;23.252;2022-12-18T11:33:06;95638.63;;;2.39;100.00
11339;BME280;5724;42.684;23.252;2022-12-18T11:35:54;95644.56;;;2.46;100.00
11339;BME280;5724;42.684;23.252;2022-12-18T11:38:31;95630.78;;;2.47;100.00
11339;BME280;5724;42.684;23.252;2022-12-18T11:41:07;95651.00;;;2.50;100.00
11339;BME280;5724;42.684;23.252;2022-12-18T11:43:48;95644.00;;;2.49;100.00
11339;BME280;5724;42.684;23.252;2022-12-18T11:46:23;95645.09;;;2.43;100.00
11339;BME280;5724;42.684;23.252;2022-12-18T11:49:01;95638.09;;;2.32;100.00
11339;BME280;5724;42.684;23.252;2022-12-18T11:51:37;95644.41;;;2.07;100.00
11339;BME280;5724;42.684;23.252;2022-12-18T11:54:13;95635.00;;;1.89;100.00
11339;BME280;5724;42.684;23.252;2022-12-18T11:56:46;95631.75;;;1.82;100.00
11339;BME280;5724;42.684;23.252;2022-12-18T11:59:37;95629.91;;;1.67;100.00
11339;BME280;5724;42.684;23.252;2022-12-18T12:05:27;95625.81;;;2.00;100.00
11339;BME280;5724;42.684;23.252;2022-12-18T12:16:52;95637.34;;;2.85;100.00
11339;BME280;5724;42.684;23.252;2022-12-18T12:25:15;95631.38;;;2.88;100.00
11339;BME280;5724;42.684;23.252;2022-12-18T12:35:47;95638.94;;;2.32;100.00
11339;BME280;5724;42.684;23.252;2022-12-18T12:38:28;95642.72;;;2.21;100.00
11339;BME280;5724;42.684;23.252;2022-12-18T12:41:02;95633.88;;;2.15;100.00
11339;BME280;5724;42.684;23.252;2022-12-18T12:43:44;95625.81;;;2.00;100.00
11339;BME280;5724;42.684;23.252;2022-12-18T12:46:15;95618.25;;;2.02;100.00
11339;BME280;5724;42.684;23.252;2022-12-18T12:51:12;95637.13;;;2.07;100.00
11339;BME280;5724;42.684;23.252;2022-12-18T12:53:40;95646.53;;;2.15;100.00
11339;BME280;5724;42.684;23.252;2022-12-18T12:56:10;95643.50;;;2.37;100.00
11339;BME280;5724;42.684;23.252;2022-12-18T13:01:51;95653.69;;;2.55;100.00
11339;BME280;5724;42.684;23.252;2022-12-18T13:07:03;95654.78;;;2.54;100.00
11339;BME280;5724;42.684;23.252;2022-12-18T13:09:32;95644.75;;;2.59;100.00
11339;BME280;5724;42.684;23.252;2022-12-18T13:12:11;95662.03;;;2.58;100.00
11339;BME280;5724;42.684;23.252;2022-12-18T13:15:12;95660.78;;;2.30;100.00
11339;BME280;5724;42.684;23.252;2022-12-18T13:17:45;95661.34;;;2.17;100.00
11339;BME280;5724;42.684;23.252;2022-12-18T13:20:12;95667.31;;;2.04;100.00
11339;BME280;5724;42.684;23.252;2022-12-18T13:22:46;95676.50;;;1.78;100.00
11339;BME280;5724;42.684;23.252;2022-12-18T13:30:46;95664.09;;;1.87;100.00
11339;BME280;5724;42.684;23.252;2022-12-18T13:41:04;95670.16;;;2.48;100.00
11339;BME280;5724;42.684;23.252;2022-12-18T13:43:48;95686.34;;;2.53;100.00
11339;BME280;5724;42.684;23.252;2022-12-18T13:46:43;95678.50;;;2.62;100.00
11339;BME280;5724;42.684;23.252;2022-12-18T13:51:52;95686.56;;;2.67;100.00
11339;BME280;5724;42.684;23.252;2022-12-18T13:56:47;95700.06;;;2.62;100.00
11339;BME280;5724;42.684;23.252;2022-12-18T13:59:23;95699.84;;;2.53;100.00
11339;BME280;5724;42.684;23.252;2022-12-18T14:07:28;95699.59;;;2.40;100.00
11339;BME280;5724;42.684;23.252;2022-12-18T14:09:55;95706.63;;;2.20;100.00
11339;BME280;5724;42.684;23.252;2022-12-18T14:12:27;95705.06;;;2.04;100.00
11339;BME280;5724;42.684;23.252;2022-12-18T14:15:29;95694.81;;;1.86;100.00
11339;BME280;5724;42.684;23.252;2022-12-18T14:18:01;95706.94;;;1.78;100.00
11339;BME280;5724;42.684;23.252;2022-12-18T14:20:29;95707.22;;;1.77;100.00
11339;BME280;5724;42.684;23.252;2022-12-18T14:22:57;95711.53;;;1.72;100.00
11339;BME280;5724;42.684;23.252;2022-12-18T14:25:26;95703.97;;;1.69;100.00
11339;BME280;5724;42.684;23.252;2022-12-18T14:30:40;95720.69;;;1.71;100.00
11339;BME280;5724;42.684;23.252;2022-12-18T14:35:37;95709.38;;;1.90;100.00
11339;BME280;5724;42.684;23.252;2022-12-18T14:38:31;95718.53;;;2.14;100.00
11339;BME280;5724;42.684;23.252;2022-12-18T14:41:02;95713.13;;;2.24;100.00
11339;BME280;5724;42.684;23.252;2022-12-18T14:43:32;95707.16;;;2.33;100.00
11339;BME280;5724;42.684;23.252;2022-12-18T14:45:58;95697.97;;;2.39;100.00